Riverhead, NY

12:27 PM EDT on March 27, 2015 (GMT -0400)
MARITIME | | Change Station
CLOSE
Current Station
Personal Weather Station
Location: Mattituck, NY
Elevation: 0 ft
Nearby Weather Stations

Elev 0 ft 41.10 °N, 72.70 °W | Updated 35 days ago

Rain
Rain
42 °F
Feels Like 39 °F
N
7
Wind Variable Wind from NNW
Gusts mph

Today
High -- | Low -- °F
--% Chance of Precip.
Yesterday
High -- | Low -- °F
Precip. -- in
6:42 AM 7:10 PM
First Quarter, 54% visible
Pressure 29.72 in
Visibility 10.0 miles
Clouds Few 900 ft
Overcast 8500 ft
Windchill 39 °F
Dew Point 32 °F
Humidity 67%
Rainfall in
Snow Depth Not available.
UV 2 out of 12
Pollen 3.40 out of 12
Air Quality Not available.
Flu Activity Not available.
METAR KFOK 271553Z AUTO 35007KT 10SM FEW009 OVC085 05/02 A2972 RMK AO2 SLP063 T00500022 TSNO

More Conditions Fewer Conditions

Pressure 29.72 in
Visibility 10.0 miles
Clouds Few 900 ft
Overcast 8500 ft
Windchill 39 °F
Dew Point 32 °F
Humidity 67%
Rainfall in
Snow Depth Not available.
UV 2 out of 12
Pollen 3.40 out of 12
Air Quality Not available.
Flu Activity Not available.
METAR KFOK 271553Z AUTO 35007KT 10SM FEW009 OVC085 05/02 A2972 RMK AO2 SLP063 T00500022 TSNO

More Conditions Fewer Conditions

10-Day Weather Forecast

Almanac

Astronomy

Mar. 27, 2015 Rise Set
Actual Time
Civil Twilight
Nautical Twilight
Astronomical Twilight
Moon
Length of Visible Light
Length of Day
Tomorrow will be .
, % of the Moon is Illuminated

Today's Extremes

State Highs State Lows

Community

WunderPhotos

Upload Photos

1,808,770 photos uploaded!

WunderBlogs® & News

Nearby

Air Quality

  Air Quality AQ Index Pollutant
Not available.

Snow Depth

Station Depth Elevation

Earthquake Activity

City Distance Mag. Time & Date
Minimum magnitude displayed is 2.5.

Coastal Water Temperatures

Place Temperature

Stations

Nearby Weather Stations

Station Location Temp. Windchill Dew Point Humidity Wind Precip. Elev Updated Type